sensor_id;sensor_type;location;lat;lon;timestamp;pressure;altitude;pressure_sealevel;temperature;humidity
39455;BME280;25155;41.890;23.446;2023-07-28T00:00:26;91998.00;;;13.93;47.89
39455;BME280;25155;41.890;23.446;2023-07-28T00:02:53;91995.66;;;13.92;47.60
39455;BME280;25155;41.890;23.446;2023-07-28T00:05:21;91996.78;;;13.86;48.22
39455;BME280;25155;41.890;23.446;2023-07-28T00:07:48;91999.41;;;13.86;48.31
39455;BME280;25155;41.890;23.446;2023-07-28T00:10:16;92007.28;;;13.86;47.97
39455;BME280;25155;41.890;23.446;2023-07-28T00:12:43;92003.66;;;13.81;48.18
39455;BME280;25155;41.890;23.446;2023-07-28T00:15:11;92005.28;;;13.77;48.31
39455;BME280;25155;41.890;23.446;2023-07-28T00:17:39;92008.06;;;13.62;49.08
39455;BME280;25155;41.890;23.446;2023-07-28T00:20:09;91993.19;;;13.57;48.26
39455;BME280;25155;41.890;23.446;2023-07-28T00:22:36;92000.50;;;13.60;48.39
39455;BME280;25155;41.890;23.446;2023-07-28T00:25:04;91990.56;;;13.57;48.22
39455;BME280;25155;41.890;23.446;2023-07-28T00:27:32;92005.94;;;13.64;47.76
39455;BME280;25155;41.890;23.446;2023-07-28T00:29:59;91999.91;;;13.63;48.29
39455;BME280;25155;41.890;23.446;2023-07-28T00:32:27;92006.72;;;13.64;48.14
39455;BME280;25155;41.890;23.446;2023-07-28T00:34:56;92008.84;;;13.62;48.25
39455;BME280;25155;41.890;23.446;2023-07-28T00:37:23;92006.00;;;13.59;48.16
39455;BME280;25155;41.890;23.446;2023-07-28T00:39:50;92003.94;;;13.56;48.09
39455;BME280;25155;41.890;23.446;2023-07-28T00:42:17;92015.47;;;13.55;48.04
39455;BME280;25155;41.890;23.446;2023-07-28T00:44:44;92008.72;;;13.48;49.00
39455;BME280;25155;41.890;23.446;2023-07-28T00:47:12;92019.25;;;13.43;48.47
39455;BME280;25155;41.890;23.446;2023-07-28T00:49:40;92012.22;;;13.39;48.78
39455;BME280;25155;41.890;23.446;2023-07-28T00:52:09;92017.50;;;13.34;48.59
39455;BME280;25155;41.890;23.446;2023-07-28T00:54:36;92029.31;;;13.31;48.33
39455;BME280;25155;41.890;23.446;2023-07-28T00:57:04;92033.25;;;13.28;48.59
39455;BME280;25155;41.890;23.446;2023-07-28T00:59:32;92031.75;;;13.22;48.53
39455;BME280;25155;41.890;23.446;2023-07-28T01:01:59;92032.53;;;13.23;48.68
39455;BME280;25155;41.890;23.446;2023-07-28T01:04:27;92019.47;;;13.18;48.64
39455;BME280;25155;41.890;23.446;2023-07-28T01:07:01;92030.50;;;13.15;48.98
39455;BME280;25155;41.890;23.446;2023-07-28T01:09:36;92031.72;;;12.93;50.21
39455;BME280;25155;41.890;23.446;2023-07-28T01:12:08;92038.09;;;12.82;49.37
39455;BME280;25155;41.890;23.446;2023-07-28T01:14:36;92039.09;;;12.86;49.21
39455;BME280;25155;41.890;23.446;2023-07-28T01:17:03;92035.97;;;12.84;49.59
39455;BME280;25155;41.890;23.446;2023-07-28T01:19:31;92035.44;;;12.87;49.40
39455;BME280;25155;41.890;23.446;2023-07-28T01:22:15;92033.63;;;12.82;49.05
39455;BME280;25155;41.890;23.446;2023-07-28T01:24:54;92032.34;;;12.80;49.17
39455;BME280;25155;41.890;23.446;2023-07-28T01:27:24;92032.44;;;12.64;50.60
39455;BME280;25155;41.890;23.446;2023-07-28T01:29:52;92037.72;;;12.59;50.17
39455;BME280;25155;41.890;23.446;2023-07-28T01:32:20;92030.72;;;12.54;49.40
39455;BME280;25155;41.890;23.446;2023-07-28T01:34:47;92019.16;;;12.55;49.70
39455;BME280;25155;41.890;23.446;2023-07-28T01:37:14;92035.63;;;12.56;49.45
39455;BME280;25155;41.890;23.446;2023-07-28T01:39:41;92027.56;;;12.52;49.36
39455;BME280;25155;41.890;23.446;2023-07-28T01:42:09;92017.38;;;12.51;49.57
39455;BME280;25155;41.890;23.446;2023-07-28T01:44:37;92019.47;;;12.49;49.29
39455;BME280;25155;41.890;23.446;2023-07-28T01:47:05;92025.22;;;12.51;48.87
39455;BME280;25155;41.890;23.446;2023-07-28T01:49:32;92024.72;;;12.49;49.33
39455;BME280;25155;41.890;23.446;2023-07-28T01:51:59;92027.88;;;12.46;49.45
39455;BME280;25155;41.890;23.446;2023-07-28T01:54:26;92021.84;;;12.45;49.47
39455;BME280;25155;41.890;23.446;2023-07-28T01:56:54;92024.00;;;12.38;49.70
39455;BME280;25155;41.890;23.446;2023-07-28T01:59:21;92034.75;;;12.31;50.18
39455;BME280;25155;41.890;23.446;2023-07-28T02:01:50;92026.94;;;12.21;49.96
39455;BME280;25155;41.890;23.446;2023-07-28T02:04:17;92040.56;;;12.18;50.09
39455;BME280;25155;41.890;23.446;2023-07-28T02:06:45;92036.13;;;12.18;50.31
39455;BME280;25155;41.890;23.446;2023-07-28T02:09:12;92040.56;;;12.18;49.71
39455;BME280;25155;41.890;23.446;2023-07-28T02:11:39;92045.28;;;12.16;49.69
39455;BME280;25155;41.890;23.446;2023-07-28T02:14:07;92043.19;;;12.13;49.91
39455;BME280;25155;41.890;23.446;2023-07-28T02:16:34;92047.16;;;12.10;49.54
39455;BME280;25155;41.890;23.446;2023-07-28T02:19:03;92051.88;;;12.08;49.87
39455;BME280;25155;41.890;23.446;2023-07-28T02:21:30;92060.50;;;12.09;49.64
39455;BME280;25155;41.890;23.446;2023-07-28T02:23:58;92057.63;;;12.05;49.88
39455;BME280;25155;41.890;23.446;2023-07-28T02:26:25;92061.06;;;12.00;50.04
39455;BME280;25155;41.890;23.446;2023-07-28T02:28:53;92054.28;;;11.94;49.95
39455;BME280;25155;41.890;23.446;2023-07-28T02:31:20;92056.59;;;11.91;49.92
39455;BME280;25155;41.890;23.446;2023-07-28T02:33:47;92045.91;;;11.87;50.42
39455;BME280;25155;41.890;23.446;2023-07-28T02:36:16;92052.72;;;11.83;50.48
39455;BME280;25155;41.890;23.446;2023-07-28T02:38:44;92052.19;;;11.81;50.30
39455;BME280;25155;41.890;23.446;2023-07-28T02:41:12;92051.19;;;11.77;50.29
39455;BME280;25155;41.890;23.446;2023-07-28T02:43:39;92050.66;;;11.75;50.62
39455;BME280;25155;41.890;23.446;2023-07-28T02:46:07;92054.84;;;11.76;50.46
39455;BME280;25155;41.890;23.446;2023-07-28T02:48:34;92049.09;;;11.74;49.98
39455;BME280;25155;41.890;23.446;2023-07-28T02:51:01;92044.91;;;11.73;49.96
39455;BME280;25155;41.890;23.446;2023-07-28T02:53:30;92053.28;;;11.70;50.52
39455;BME280;25155;41.890;23.446;2023-07-28T02:55:57;92055.38;;;11.68;50.64
39455;BME280;25155;41.890;23.446;2023-07-28T02:58:24;92055.91;;;11.64;50.17
39455;BME280;25155;41.890;23.446;2023-07-28T03:00:52;92059.03;;;11.61;50.51
39455;BME280;25155;41.890;23.446;2023-07-28T03:03:19;92054.88;;;11.60;50.31
39455;BME280;25155;41.890;23.446;2023-07-28T03:05:46;92065.34;;;11.40;51.74
39455;BME280;25155;41.890;23.446;2023-07-28T03:08:18;92071.13;;;11.32;51.45
39455;BME280;25155;41.890;23.446;2023-07-28T03:10:47;92073.72;;;11.26;51.28
39455;BME280;25155;41.890;23.446;2023-07-28T03:13:14;92069.03;;;11.29;50.71
39455;BME280;25155;41.890;23.446;2023-07-28T03:15:41;92068.00;;;11.30;51.01
39455;BME280;25155;41.890;23.446;2023-07-28T03:18:08;92066.16;;;11.30;51.00
39455;BME280;25155;41.890;23.446;2023-07-28T03:20:35;92063.31;;;11.21;51.64
39455;BME280;25155;41.890;23.446;2023-07-28T03:23:02;92078.97;;;11.16;51.42
39455;BME280;25155;41.890;23.446;2023-07-28T03:25:29;92072.16;;;11.15;51.12
39455;BME280;25155;41.890;23.446;2023-07-28T03:27:58;92063.56;;;11.15;51.07
39455;BME280;25155;41.890;23.446;2023-07-28T03:30:25;92069.03;;;11.18;51.30
39455;BME280;25155;41.890;23.446;2023-07-28T03:32:53;92071.66;;;11.18;51.46
39455;BME280;25155;41.890;23.446;2023-07-28T03:35:20;92071.66;;;11.13;51.45
39455;BME280;25155;41.890;23.446;2023-07-28T03:37:47;92071.16;;;11.11;51.26
39455;BME280;25155;41.890;23.446;2023-07-28T03:40:15;92080.00;;;11.10;51.42
39455;BME280;25155;41.890;23.446;2023-07-28T03:42:42;92077.13;;;11.12;51.28
39455;BME280;25155;41.890;23.446;2023-07-28T03:45:11;92081.31;;;11.07;51.66
39455;BME280;25155;41.890;23.446;2023-07-28T03:47:38;92083.41;;;11.05;52.01
39455;BME280;25155;41.890;23.446;2023-07-28T03:50:06;92095.66;;;11.05;51.81
39455;BME280;25155;41.890;23.446;2023-07-28T03:52:33;92095.66;;;11.05;51.98
39455;BME280;25155;41.890;23.446;2023-07-28T03:55:00;92095.41;;;11.06;51.63
39455;BME280;25155;41.890;23.446;2023-07-28T03:57:27;92097.75;;;11.08;51.46
39455;BME280;25155;41.890;23.446;2023-07-28T03:59:55;92096.72;;;11.04;52.08
39455;BME280;25155;41.890;23.446;2023-07-28T04:02:24;92092.03;;;11.01;51.96
39455;BME280;25155;41.890;23.446;2023-07-28T04:04:53;92093.59;;;11.02;52.11
39455;BME280;25155;41.890;23.446;2023-07-28T04:07:21;92091.22;;;11.00;52.14
39455;BME280;25155;41.890;23.446;2023-07-28T04:09:48;92096.19;;;11.07;51.99
39455;BME280;25155;41.890;23.446;2023-07-28T04:12:15;92099.34;;;11.09;51.75
39455;BME280;25155;41.890;23.446;2023-07-28T04:14:43;92100.88;;;11.10;51.70
39455;BME280;25155;41.890;23.446;2023-07-28T04:17:10;92108.47;;;11.12;51.58
39455;BME280;25155;41.890;23.446;2023-07-28T04:19:40;92109.53;;;11.11;51.42
39455;BME280;25155;41.890;23.446;2023-07-28T04:22:07;92103.25;;;11.12;51.71
39455;BME280;25155;41.890;23.446;2023-07-28T04:24:34;92108.72;;;11.10;52.39
39455;BME280;25155;41.890;23.446;2023-07-28T04:27:01;92106.91;;;11.11;52.52
39455;BME280;25155;41.890;23.446;2023-07-28T04:29:28;92106.91;;;11.11;52.68
39455;BME280;25155;41.890;23.446;2023-07-28T04:31:56;92114.75;;;11.16;52.47
39455;BME280;25155;41.890;23.446;2023-07-28T04:34:23;92115.50;;;11.16;53.25
39455;BME280;25155;41.890;23.446;2023-07-28T04:36:52;92118.13;;;11.16;52.56
39455;BME280;25155;41.890;23.446;2023-07-28T04:39:20;92117.09;;;11.22;52.85
39455;BME280;25155;41.890;23.446;2023-07-28T04:41:47;92115.50;;;11.26;52.88
39455;BME280;25155;41.890;23.446;2023-07-28T04:44:15;92116.56;;;11.31;52.45
39455;BME280;25155;41.890;23.446;2023-07-28T04:46:42;92114.47;;;11.33;53.05
39455;BME280;25155;41.890;23.446;2023-07-28T04:49:09;92107.91;;;11.35;52.53
39455;BME280;25155;41.890;23.446;2023-07-28T04:51:36;92124.66;;;11.39;52.71
39455;BME280;25155;41.890;23.446;2023-07-28T04:54:05;92121.25;;;11.44;52.55
39455;BME280;25155;41.890;23.446;2023-07-28T04:56:33;92124.63;;;11.50;52.55
39455;BME280;25155;41.890;23.446;2023-07-28T04:59:00;92119.13;;;11.56;53.47
39455;BME280;25155;41.890;23.446;2023-07-28T05:01:27;92119.38;;;11.60;53.79
39455;BME280;25155;41.890;23.446;2023-07-28T05:03:55;92125.41;;;11.66;54.62
39455;BME280;25155;41.890;23.446;2023-07-28T05:06:22;92116.25;;;11.68;54.62
39455;BME280;25155;41.890;23.446;2023-07-28T05:08:49;92123.28;;;11.73;55.12
39455;BME280;25155;41.890;23.446;2023-07-28T05:11:18;92124.34;;;11.77;55.38
39455;BME280;25155;41.890;23.446;2023-07-28T05:13:45;92130.84;;;11.85;55.19
39455;BME280;25155;41.890;23.446;2023-07-28T05:16:12;92126.94;;;11.92;54.98
39455;BME280;25155;41.890;23.446;2023-07-28T05:18:39;92134.25;;;12.00;54.77
39455;BME280;25155;41.890;23.446;2023-07-28T05:21:08;92126.38;;;12.06;55.26
39455;BME280;25155;41.890;23.446;2023-07-28T05:23:36;92127.94;;;12.12;55.06
39455;BME280;25155;41.890;23.446;2023-07-28T05:26:03;92130.78;;;12.15;54.73
39455;BME280;25155;41.890;23.446;2023-07-28T05:28:34;92128.94;;;12.21;54.78
39455;BME280;25155;41.890;23.446;2023-07-28T05:31:04;92134.69;;;12.28;54.47
39455;BME280;25155;41.890;23.446;2023-07-28T05:33:31;92136.75;;;12.36;54.47
39455;BME280;25155;41.890;23.446;2023-07-28T05:35:59;92128.34;;;12.45;54.47
39455;BME280;25155;41.890;23.446;2023-07-28T05:38:27;92127.53;;;12.44;53.95
39455;BME280;25155;41.890;23.446;2023-07-28T05:40:57;92131.72;;;12.45;54.04
39455;BME280;25155;41.890;23.446;2023-07-28T05:43:26;92120.69;;;12.53;53.74
39455;BME280;25155;41.890;23.446;2023-07-28T05:45:55;92128.75;;;12.62;53.84
39455;BME280;25155;41.890;23.446;2023-07-28T05:48:23;92130.03;;;12.70;53.50
39455;BME280;25155;41.890;23.446;2023-07-28T05:50:50;92122.16;;;12.75;52.54
39455;BME280;25155;41.890;23.446;2023-07-28T05:53:19;92120.00;;;12.82;52.42
39455;BME280;25155;41.890;23.446;2023-07-28T05:55:46;92122.09;;;12.85;51.73
39455;BME280;25155;41.890;23.446;2023-07-28T05:58:14;92124.16;;;12.88;51.25
39455;BME280;25155;41.890;23.446;2023-07-28T06:00:41;92126.50;;;12.90;51.12
39455;BME280;25155;41.890;23.446;2023-07-28T06:03:11;92125.97;;;12.93;50.64
39455;BME280;25155;41.890;23.446;2023-07-28T06:05:40;92111.81;;;12.99;50.95
39455;BME280;25155;41.890;23.446;2023-07-28T06:08:07;92120.84;;;13.12;50.07
39455;BME280;25155;41.890;23.446;2023-07-28T06:10:34;92113.69;;;13.28;50.41
39455;BME280;25155;41.890;23.446;2023-07-28T06:13:02;92108.38;;;13.38;50.60
39455;BME280;25155;41.890;23.446;2023-07-28T06:15:29;92107.75;;;13.52;50.99
39455;BME280;25155;41.890;23.446;2023-07-28T06:17:56;92114.72;;;13.61;50.68
39455;BME280;25155;41.890;23.446;2023-07-28T06:20:25;92108.13;;;13.69;50.02
39455;BME280;25155;41.890;23.446;2023-07-28T06:22:53;92110.13;;;13.77;48.74
39455;BME280;25155;41.890;23.446;2023-07-28T06:25:20;92106.34;;;13.89;47.75
39455;BME280;25155;41.890;23.446;2023-07-28T06:27:47;92103.34;;;14.00;47.38
39455;BME280;25155;41.890;23.446;2023-07-28T06:30:15;92103.22;;;14.11;47.06
39455;BME280;25155;41.890;23.446;2023-07-28T06:32:42;92100.47;;;14.21;46.76
39455;BME280;25155;41.890;23.446;2023-07-28T06:35:09;92098.53;;;14.32;47.06
39455;BME280;25155;41.890;23.446;2023-07-28T06:37:38;92100.53;;;14.40;45.80
39455;BME280;25155;41.890;23.446;2023-07-28T06:40:06;92103.78;;;14.51;45.48
39455;BME280;25155;41.890;23.446;2023-07-28T06:42:35;92102.91;;;14.61;45.24
39455;BME280;25155;41.890;23.446;2023-07-28T06:45:04;92100.13;;;14.71;45.38
39455;BME280;25155;41.890;23.446;2023-07-28T06:47:31;92097.59;;;14.85;44.96
39455;BME280;25155;41.890;23.446;2023-07-28T06:49:58;92100.94;;;14.90;44.81
39455;BME280;25155;41.890;23.446;2023-07-28T06:52:25;92096.59;;;15.00;44.67
39455;BME280;25155;41.890;23.446;2023-07-28T06:54:54;92104.81;;;15.12;44.95
39455;BME280;25155;41.890;23.446;2023-07-28T06:57:22;92091.94;;;15.29;45.16
39455;BME280;25155;41.890;23.446;2023-07-28T06:59:50;92098.53;;;15.46;45.64
39455;BME280;25155;41.890;23.446;2023-07-28T07:02:17;92099.84;;;15.62;45.36
39455;BME280;25155;41.890;23.446;2023-07-28T07:04:45;92099.59;;;15.78;45.28
39455;BME280;25155;41.890;23.446;2023-07-28T07:07:12;92098.53;;;15.93;45.15
39455;BME280;25155;41.890;23.446;2023-07-28T07:09:39;92100.69;;;16.04;44.70
39455;BME280;25155;41.890;23.446;2023-07-28T07:12:08;92102.53;;;16.18;44.84
39455;BME280;25155;41.890;23.446;2023-07-28T07:14:36;92105.75;;;16.29;44.11
39455;BME280;25155;41.890;23.446;2023-07-28T07:17:04;92098.63;;;16.43;44.65
39455;BME280;25155;41.890;23.446;2023-07-28T07:19:31;92097.06;;;16.56;43.83
39455;BME280;25155;41.890;23.446;2023-07-28T07:21:58;92087.88;;;16.67;44.35
39455;BME280;25155;41.890;23.446;2023-07-28T07:24:26;92092.91;;;16.77;44.04
39455;BME280;25155;41.890;23.446;2023-07-28T07:26:53;92096.44;;;16.87;43.58
39455;BME280;25155;41.890;23.446;2023-07-28T07:29:22;92087.84;;;16.95;42.88
39455;BME280;25155;41.890;23.446;2023-07-28T07:31:49;92082.81;;;17.07;42.61
39455;BME280;25155;41.890;23.446;2023-07-28T07:34:22;92085.19;;;17.18;42.52
39455;BME280;25155;41.890;23.446;2023-07-28T07:36:50;92075.97;;;17.29;42.52
39455;BME280;25155;41.890;23.446;2023-07-28T07:39:17;92076.66;;;17.34;42.06
39455;BME280;25155;41.890;23.446;2023-07-28T07:41:44;92067.09;;;17.47;42.53
39455;BME280;25155;41.890;23.446;2023-07-28T07:44:12;92063.72;;;17.56;41.70
39455;BME280;25155;41.890;23.446;2023-07-28T07:46:40;92069.06;;;17.64;41.64
39455;BME280;25155;41.890;23.446;2023-07-28T07:49:08;92064.47;;;17.79;42.34
39455;BME280;25155;41.890;23.446;2023-07-28T07:51:35;92060.50;;;17.90;42.30
39455;BME280;25155;41.890;23.446;2023-07-28T07:54:03;92061.97;;;18.05;42.11
39455;BME280;25155;41.890;23.446;2023-07-28T07:56:30;92059.09;;;18.24;42.87
39455;BME280;25155;41.890;23.446;2023-07-28T07:58:58;92059.59;;;18.43;42.62
39455;BME280;25155;41.890;23.446;2023-07-28T08:01:25;92052.97;;;18.63;42.16
39455;BME280;25155;41.890;23.446;2023-07-28T08:03:54;92052.97;;;18.81;42.96
39455;BME280;25155;41.890;23.446;2023-07-28T08:06:21;92056.56;;;19.03;42.83
39455;BME280;25155;41.890;23.446;2023-07-28T08:08:48;92051.28;;;19.20;42.03
39455;BME280;25155;41.890;23.446;2023-07-28T08:11:18;92046.91;;;19.33;41.28
39455;BME280;25155;41.890;23.446;2023-07-28T08:13:46;92052.78;;;19.47;40.92
39455;BME280;25155;41.890;23.446;2023-07-28T08:16:14;92045.59;;;19.65;42.19
39455;BME280;25155;41.890;23.446;2023-07-28T08:18:41;92049.78;;;19.84;41.94
39455;BME280;25155;41.890;23.446;2023-07-28T08:21:10;92049.28;;;19.99;40.29
39455;BME280;25155;41.890;23.446;2023-07-28T08:23:37;92052.91;;;20.16;41.74
39455;BME280;25155;41.890;23.446;2023-07-28T08:26:05;92047.09;;;20.31;41.36
39455;BME280;25155;41.890;23.446;2023-07-28T08:28:33;92038.59;;;20.46;40.83
39455;BME280;25155;41.890;23.446;2023-07-28T08:31:00;92035.44;;;20.53;37.96
39455;BME280;25155;41.890;23.446;2023-07-28T08:33:29;92032.47;;;20.55;36.58
39455;BME280;25155;41.890;23.446;2023-07-28T08:35:57;92033.50;;;20.62;37.71
39455;BME280;25155;41.890;23.446;2023-07-28T08:38:25;92025.97;;;20.73;38.22
39455;BME280;25155;41.890;23.446;2023-07-28T08:40:53;92023.72;;;20.84;36.09
39455;BME280;25155;41.890;23.446;2023-07-28T08:43:20;92014.47;;;20.90;37.16
39455;BME280;25155;41.890;23.446;2023-07-28T08:45:47;92004.25;;;21.01;36.19
39455;BME280;25155;41.890;23.446;2023-07-28T08:48:15;92006.03;;;21.09;36.31
39455;BME280;25155;41.890;23.446;2023-07-28T08:50:42;92006.28;;;21.16;35.62
39455;BME280;25155;41.890;23.446;2023-07-28T08:53:10;91996.81;;;21.28;36.45
39455;BME280;25155;41.890;23.446;2023-07-28T08:55:38;91992.78;;;21.43;37.04
39455;BME280;25155;41.890;23.446;2023-07-28T08:58:16;91987.75;;;21.50;34.69
39455;BME280;25155;41.890;23.446;2023-07-28T09:00:45;91989.66;;;21.62;35.23
39455;BME280;25155;41.890;23.446;2023-07-28T09:03:15;91982.03;;;21.72;36.42
39455;BME280;25155;41.890;23.446;2023-07-28T09:05:43;91974.63;;;21.90;36.16
39455;BME280;25155;41.890;23.446;2023-07-28T09:08:12;91978.94;;;22.07;36.95
39455;BME280;25155;41.890;23.446;2023-07-28T09:10:45;91973.88;;;22.15;33.93
39455;BME280;25155;41.890;23.446;2023-07-28T09:13:15;91971.75;;;22.20;34.65
39455;BME280;25155;41.890;23.446;2023-07-28T09:15:43;91969.66;;;22.38;35.16
39455;BME280;25155;41.890;23.446;2023-07-28T09:18:11;91962.22;;;22.44;32.93
39455;BME280;25155;41.890;23.446;2023-07-28T09:20:40;91967.31;;;22.49;33.24
39455;BME280;25155;41.890;23.446;2023-07-28T09:23:09;91956.41;;;22.66;35.24
39455;BME280;25155;41.890;23.446;2023-07-28T09:25:37;91956.72;;;22.77;31.83
39455;BME280;25155;41.890;23.446;2023-07-28T09:28:06;91950.03;;;22.83;33.22
39455;BME280;25155;41.890;23.446;2023-07-28T09:30:46;91948.59;;;22.86;32.62
39455;BME280;25155;41.890;23.446;2023-07-28T09:33:28;91946.56;;;22.95;32.19
39455;BME280;25155;41.890;23.446;2023-07-28T09:35:55;91948.63;;;22.74;33.39
39455;BME280;25155;41.890;23.446;2023-07-28T09:38:24;91940.09;;;23.09;32.55
39455;BME280;25155;41.890;23.446;2023-07-28T09:40:56;91926.16;;;23.28;33.80
39455;BME280;25155;41.890;23.446;2023-07-28T09:43:26;91931.53;;;23.44;31.48
39455;BME280;25155;41.890;23.446;2023-07-28T09:45:54;91932.97;;;23.57;31.20
39455;BME280;25155;41.890;23.446;2023-07-28T09:48:23;91917.19;;;23.64;31.16
39455;BME280;25155;41.890;23.446;2023-07-28T09:50:51;91917.00;;;23.73;30.64
39455;BME280;25155;41.890;23.446;2023-07-28T09:53:19;91913.66;;;23.92;30.94
39455;BME280;25155;41.890;23.446;2023-07-28T09:55:49;91906.69;;;24.03;28.51
39455;BME280;25155;41.890;23.446;2023-07-28T09:58:18;91904.78;;;24.20;28.72
39455;BME280;25155;41.890;23.446;2023-07-28T10:00:49;91899.72;;;24.34;26.00
39455;BME280;25155;41.890;23.446;2023-07-28T10:03:17;91900.53;;;24.54;25.64
39455;BME280;25155;41.890;23.446;2023-07-28T10:05:45;91886.34;;;24.66;25.33
39455;BME280;25155;41.890;23.446;2023-07-28T10:08:13;91898.31;;;24.76;25.88
39455;BME280;25155;41.890;23.446;2023-07-28T10:10:41;91890.81;;;24.81;26.22
39455;BME280;25155;41.890;23.446;2023-07-28T10:13:19;91885.53;;;24.85;24.35
39455;BME280;25155;41.890;23.446;2023-07-28T10:15:49;91887.41;;;25.04;24.79
39455;BME280;25155;41.890;23.446;2023-07-28T10:18:19;91886.78;;;25.11;24.77
39455;BME280;25155;41.890;23.446;2023-07-28T10:20:47;91877.88;;;24.83;25.55
39455;BME280;25155;41.890;23.446;2023-07-28T10:23:16;91871.84;;;25.06;25.50
39455;BME280;25155;41.890;23.446;2023-07-28T10:25:45;91867.72;;;25.12;24.83
39455;BME280;25155;41.890;23.446;2023-07-28T10:28:29;91878.50;;;25.16;24.87
39455;BME280;25155;41.890;23.446;2023-07-28T10:30:59;91874.03;;;25.23;23.88
39455;BME280;25155;41.890;23.446;2023-07-28T10:33:29;91883.50;;;25.40;24.04
39455;BME280;25155;41.890;23.446;2023-07-28T10:35:57;91877.09;;;25.45;23.97
39455;BME280;25155;41.890;23.446;2023-07-28T10:38:32;91853.00;;;25.41;23.94
39455;BME280;25155;41.890;23.446;2023-07-28T10:41:11;91870.56;;;25.42;23.36
39455;BME280;25155;41.890;23.446;2023-07-28T10:43:39;91864.59;;;25.49;23.74
39455;BME280;25155;41.890;23.446;2023-07-28T10:46:10;91859.41;;;25.60;23.98
39455;BME280;25155;41.890;23.446;2023-07-28T10:48:41;91854.94;;;25.68;23.67
39455;BME280;25155;41.890;23.446;2023-07-28T10:51:09;91855.88;;;25.79;23.17
39455;BME280;25155;41.890;23.446;2023-07-28T10:53:37;91843.28;;;25.79;23.12
39455;BME280;25155;41.890;23.446;2023-07-28T10:56:05;91844.19;;;25.87;24.13
39455;BME280;25155;41.890;23.446;2023-07-28T10:58:34;91844.03;;;26.03;23.42
39455;BME280;25155;41.890;23.446;2023-07-28T11:01:02;91844.09;;;26.07;23.11
39455;BME280;25155;41.890;23.446;2023-07-28T11:03:30;91838.81;;;26.10;22.49
39455;BME280;25155;41.890;23.446;2023-07-28T11:05:59;91847.25;;;26.16;21.65
39455;BME280;25155;41.890;23.446;2023-07-28T11:08:26;91839.72;;;26.22;22.70
39455;BME280;25155;41.890;23.446;2023-07-28T11:10:53;91841.59;;;26.21;22.65
39455;BME280;25155;41.890;23.446;2023-07-28T11:13:21;91842.88;;;26.31;23.02
39455;BME280;25155;41.890;23.446;2023-07-28T11:15:51;91837.19;;;26.36;22.71
39455;BME280;25155;41.890;23.446;2023-07-28T11:18:19;91832.69;;;26.40;22.13
39455;BME280;25155;41.890;23.446;2023-07-28T11:20:48;91822.03;;;26.44;23.09
39455;BME280;25155;41.890;23.446;2023-07-28T11:23:15;91830.56;;;26.53;22.89
39455;BME280;25155;41.890;23.446;2023-07-28T11:25:43;91822.59;;;26.60;23.70
39455;BME280;25155;41.890;23.446;2023-07-28T11:28:13;91819.25;;;26.67;23.09
39455;BME280;25155;41.890;23.446;2023-07-28T11:30:40;91817.44;;;26.75;23.08
39455;BME280;25155;41.890;23.446;2023-07-28T11:33:09;91816.28;;;26.76;22.83
39455;BME280;25155;41.890;23.446;2023-07-28T11:35:38;91826.63;;;26.77;22.36
39455;BME280;25155;41.890;23.446;2023-07-28T11:38:08;91831.69;;;26.86;22.22
39455;BME280;25155;41.890;23.446;2023-07-28T11:40:36;91820.59;;;26.84;21.85
39455;BME280;25155;41.890;23.446;2023-07-28T11:43:04;91816.38;;;26.83;22.05
39455;BME280;25155;41.890;23.446;2023-07-28T11:45:31;91813.38;;;26.88;22.15
39455;BME280;25155;41.890;23.446;2023-07-28T11:48:00;91818.38;;;26.90;22.30
39455;BME280;25155;41.890;23.446;2023-07-28T11:50:30;91816.84;;;26.92;22.72
39455;BME280;25155;41.890;23.446;2023-07-28T11:53:00;91801.59;;;26.96;23.14
39455;BME280;25155;41.890;23.446;2023-07-28T11:55:29;91808.50;;;27.01;24.10
39455;BME280;25155;41.890;23.446;2023-07-28T11:57:57;91811.31;;;27.15;23.98
39455;BME280;25155;41.890;23.446;2023-07-28T12:00:31;91813.28;;;27.18;23.48
39455;BME280;25155;41.890;23.446;2023-07-28T12:03:04;91813.28;;;27.18;22.86
39455;BME280;25155;41.890;23.446;2023-07-28T12:05:32;91803.78;;;27.28;23.11
39455;BME280;25155;41.890;23.446;2023-07-28T12:08:00;91798.09;;;27.30;22.80
39455;BME280;25155;41.890;23.446;2023-07-28T12:10:30;91795.06;;;27.31;22.38
39455;BME280;25155;41.890;23.446;2023-07-28T12:13:03;91793.97;;;27.39;22.24
39455;BME280;25155;41.890;23.446;2023-07-28T12:15:31;91786.69;;;27.36;22.29
39455;BME280;25155;41.890;23.446;2023-07-28T12:18:10;91793.56;;;27.37;22.69
39455;BME280;25155;41.890;23.446;2023-07-28T12:20:40;91790.84;;;27.34;22.10
39455;BME280;25155;41.890;23.446;2023-07-28T12:23:13;91803.84;;;27.32;22.16
39455;BME280;25155;41.890;23.446;2023-07-28T12:25:42;91793.13;;;27.32;22.55
39455;BME280;25155;41.890;23.446;2023-07-28T12:28:10;91797.38;;;27.36;21.86
39455;BME280;25155;41.890;23.446;2023-07-28T12:30:39;91787.09;;;27.42;22.37
39455;BME280;25155;41.890;23.446;2023-07-28T12:33:06;91791.00;;;27.52;22.08
39455;BME280;25155;41.890;23.446;2023-07-28T12:35:34;91792.53;;;27.49;22.01
39455;BME280;25155;41.890;23.446;2023-07-28T12:38:02;91801.69;;;27.48;22.49
39455;BME280;25155;41.890;23.446;2023-07-28T12:40:31;91797.50;;;27.51;21.65
39455;BME280;25155;41.890;23.446;2023-07-28T12:43:01;91801.28;;;27.46;20.48
39455;BME280;25155;41.890;23.446;2023-07-28T12:45:29;91798.28;;;27.55;20.99
39455;BME280;25155;41.890;23.446;2023-07-28T12:47:56;91792.22;;;27.65;21.46
39455;BME280;25155;41.890;23.446;2023-07-28T12:50:23;91801.84;;;27.73;22.48
39455;BME280;25155;41.890;23.446;2023-07-28T12:52:50;91796.53;;;27.77;22.41
39455;BME280;25155;41.890;23.446;2023-07-28T12:55:18;91777.03;;;27.84;22.77